sensor_id;sensor_type;location;lat;lon;timestamp;pressure;altitude;pressure_sealevel;temperature;humidity
56182;BME280;51963;46.052;14.544;2023-07-16T00:02:20;98080.41;;;21.64;100.00
56182;BME280;51963;46.052;14.544;2023-07-16T00:04:48;98084.44;;;21.82;100.00
56182;BME280;51963;46.052;14.544;2023-07-16T00:07:14;98087.13;;;21.87;100.00
56182;BME280;51963;46.052;14.544;2023-07-16T00:09:43;98084.19;;;21.94;100.00
56182;BME280;51963;46.052;14.544;2023-07-16T00:12:12;98084.44;;;21.87;100.00
56182;BME280;51963;46.052;14.544;2023-07-16T00:14:37;98040.59;;;21.71;100.00
56182;BME280;51963;46.052;14.544;2023-07-16T00:17:03;98083.13;;;22.00;100.00
56182;BME280;51963;46.052;14.544;2023-07-16T00:19:30;98090.38;;;22.05;100.00
56182;BME280;51963;46.052;14.544;2023-07-16T00:21:55;98082.59;;;21.93;100.00
56182;BME280;51963;46.052;14.544;2023-07-16T00:24:28;98084.44;;;21.97;100.00
56182;BME280;51963;46.052;14.544;2023-07-16T00:26:57;98081.50;;;21.78;100.00
56182;BME280;51963;46.052;14.544;2023-07-16T00:29:23;98072.91;;;21.97;100.00
56182;BME280;51963;46.052;14.544;2023-07-16T00:31:49;98058.34;;;22.08;100.00
56182;BME280;51963;46.052;14.544;2023-07-16T00:34:15;98072.34;;;22.10;100.00
56182;BME280;51963;46.052;14.544;2023-07-16T00:36:40;98079.84;;;22.29;100.00
56182;BME280;51963;46.052;14.544;2023-07-16T00:39:06;98072.06;;;22.17;100.00
56182;BME280;51963;46.052;14.544;2023-07-16T00:41:32;98070.19;;;22.07;100.00
56182;BME280;51963;46.052;14.544;2023-07-16T00:44:00;98071.81;;;21.93;100.00
56182;BME280;51963;46.052;14.544;2023-07-16T00:46:25;98078.81;;;22.04;100.00
56182;BME280;51963;46.052;14.544;2023-07-16T00:48:51;98061.06;;;21.88;100.00
56182;BME280;51963;46.052;14.544;2023-07-16T00:51:18;98073.97;;;21.91;100.00
56182;BME280;51963;46.052;14.544;2023-07-16T00:53:44;98065.34;;;22.15;100.00
56182;BME280;51963;46.052;14.544;2023-07-16T00:56:11;98058.34;;;22.03;100.00
56182;BME280;51963;46.052;14.544;2023-07-16T00:58:44;98062.66;;;22.04;100.00
56182;BME280;51963;46.052;14.544;2023-07-16T01:01:09;98057.81;;;22.17;100.00
56182;BME280;51963;46.052;14.544;2023-07-16T01:03:35;98059.41;;;22.12;100.00
56182;BME280;51963;46.052;14.544;2023-07-16T01:06:16;98054.03;;;22.07;100.00
56182;BME280;51963;46.052;14.544;2023-07-16T01:11:12;98064.28;;;21.95;100.00
56182;BME280;51963;46.052;14.544;2023-07-16T01:13:41;98056.75;;;22.02;100.00
56182;BME280;51963;46.052;14.544;2023-07-16T01:16:23;98052.44;;;21.86;100.00
56182;BME280;51963;46.052;14.544;2023-07-16T01:18:49;98052.44;;;21.80;100.00
56182;BME280;51963;46.052;14.544;2023-07-16T01:21:22;98047.81;;;21.60;100.00
56182;BME280;51963;46.052;14.544;2023-07-16T01:29:09;98034.94;;;21.98;100.00
56182;BME280;51963;46.052;14.544;2023-07-16T01:31:38;98020.69;;;21.98;100.00
56182;BME280;51963;46.052;14.544;2023-07-16T01:34:06;98043.81;;;22.09;100.00
56182;BME280;51963;46.052;14.544;2023-07-16T01:36:33;98035.19;;;22.07;100.00
56182;BME280;51963;46.052;14.544;2023-07-16T01:39:01;98032.72;;;22.32;100.00
56182;BME280;51963;46.052;14.544;2023-07-16T01:41:32;98041.91;;;22.15;100.00
56182;BME280;51963;46.052;14.544;2023-07-16T01:43:57;98034.41;;;21.91;100.00
56182;BME280;51963;46.052;14.544;2023-07-16T01:46:23;98033.59;;;22.06;100.00
56182;BME280;51963;46.052;14.544;2023-07-16T01:48:49;98028.78;;;21.77;100.00
56182;BME280;51963;46.052;14.544;2023-07-16T01:51:14;98023.06;;;21.58;100.00
56182;BME280;51963;46.052;14.544;2023-07-16T01:53:40;98027.69;;;21.73;100.00
56182;BME280;51963;46.052;14.544;2023-07-16T01:56:06;98023.38;;;21.67;100.00
56182;BME280;51963;46.052;14.544;2023-07-16T01:58:38;98023.06;;;21.37;100.00
56182;BME280;51963;46.052;14.544;2023-07-16T02:01:06;98022.53;;;21.46;100.00
56182;BME280;51963;46.052;14.544;2023-07-16T02:03:34;98021.78;;;21.81;100.00
56182;BME280;51963;46.052;14.544;2023-07-16T02:06:04;98005.59;;;22.02;100.00
56182;BME280;51963;46.052;14.544;2023-07-16T02:08:33;98017.72;;;21.68;100.00
56182;BME280;51963;46.052;14.544;2023-07-16T02:10:58;98015.53;;;21.50;100.00
56182;BME280;51963;46.052;14.544;2023-07-16T02:13:24;98001.56;;;21.58;100.00
56182;BME280;51963;46.052;14.544;2023-07-16T02:15:50;98015.31;;;21.67;100.00
56182;BME280;51963;46.052;14.544;2023-07-16T02:18:15;97991.63;;;21.53;100.00
56182;BME280;51963;46.052;14.544;2023-07-16T02:20:43;97998.00;;;21.11;100.00
56182;BME280;51963;46.052;14.544;2023-07-16T02:23:09;98009.59;;;21.22;100.00
56182;BME280;51963;46.052;14.544;2023-07-16T02:25:35;98009.06;;;21.30;100.00
56182;BME280;51963;46.052;14.544;2023-07-16T02:28:03;98000.22;;;21.35;100.00
56182;BME280;51963;46.052;14.544;2023-07-16T02:30:34;98006.09;;;21.21;100.00
56182;BME280;51963;46.052;14.544;2023-07-16T02:33:02;98006.59;;;21.08;100.00
56182;BME280;51963;46.052;14.544;2023-07-16T02:35:29;98007.13;;;21.10;100.00
56182;BME280;51963;46.052;14.544;2023-07-16T02:37:54;98005.81;;;21.07;100.00
56182;BME280;51963;46.052;14.544;2023-07-16T02:40:20;98006.56;;;20.92;100.00
56182;BME280;51963;46.052;14.544;2023-07-16T02:42:46;98009.97;;;20.77;100.00
56182;BME280;51963;46.052;14.544;2023-07-16T02:45:14;98008.03;;;20.62;100.00
56182;BME280;51963;46.052;14.544;2023-07-16T02:47:43;98001.53;;;20.48;100.00
56182;BME280;51963;46.052;14.544;2023-07-16T02:50:09;98010.63;;;20.42;100.00
56182;BME280;51963;46.052;14.544;2023-07-16T02:52:35;98010.03;;;20.29;100.00
56182;BME280;51963;46.052;14.544;2023-07-16T02:55:01;97994.91;;;20.13;100.00
56182;BME280;51963;46.052;14.544;2023-07-16T02:57:26;98007.28;;;20.19;100.00
56182;BME280;51963;46.052;14.544;2023-07-16T02:59:52;97997.63;;;20.23;100.00
56182;BME280;51963;46.052;14.544;2023-07-16T03:02:18;98011.31;;;20.16;100.00
56182;BME280;51963;46.052;14.544;2023-07-16T03:04:43;98012.34;;;20.10;100.00
56182;BME280;51963;46.052;14.544;2023-07-16T03:07:09;98009.94;;;20.14;100.00
56182;BME280;51963;46.052;14.544;2023-07-16T03:09:37;98013.72;;;20.18;100.00
56182;BME280;51963;46.052;14.544;2023-07-16T03:12:04;98010.47;;;20.16;100.00
56182;BME280;51963;46.052;14.544;2023-07-16T03:14:30;98006.56;;;20.34;100.00
56182;BME280;51963;46.052;14.544;2023-07-16T03:16:58;98018.03;;;20.24;100.00
56182;BME280;51963;46.052;14.544;2023-07-16T03:19:27;98018.69;;;20.42;100.00
56182;BME280;51963;46.052;14.544;2023-07-16T03:21:53;98016.72;;;20.27;100.00
56182;BME280;51963;46.052;14.544;2023-07-16T03:24:19;98018.53;;;20.16;100.00
56182;BME280;51963;46.052;14.544;2023-07-16T03:26:45;98017.16;;;20.08;100.00
56182;BME280;51963;46.052;14.544;2023-07-16T03:29:11;98018.13;;;19.91;100.00
56182;BME280;51963;46.052;14.544;2023-07-16T03:31:37;98027.78;;;19.92;100.00
56182;BME280;51963;46.052;14.544;2023-07-16T03:34:02;98021.44;;;19.76;100.00
56182;BME280;51963;46.052;14.544;2023-07-16T03:36:30;98033.28;;;19.81;100.00
56182;BME280;51963;46.052;14.544;2023-07-16T03:38:56;98041.28;;;19.75;100.00
56182;BME280;51963;46.052;14.544;2023-07-16T03:41:22;98031.03;;;19.67;100.00
56182;BME280;51963;46.052;14.544;2023-07-16T03:43:47;98040.75;;;19.73;100.00
56182;BME280;51963;46.052;14.544;2023-07-16T03:46:21;98037.00;;;19.74;100.00
56182;BME280;51963;46.052;14.544;2023-07-16T03:48:50;98040.47;;;19.70;100.00
56182;BME280;51963;46.052;14.544;2023-07-16T03:51:16;98034.53;;;19.68;100.00
56182;BME280;51963;46.052;14.544;2023-07-16T03:53:42;98044.47;;;19.72;100.00
56182;BME280;51963;46.052;14.544;2023-07-16T03:56:11;98045.91;;;19.80;100.00
56182;BME280;51963;46.052;14.544;2023-07-16T03:58:39;98043.97;;;19.75;100.00
56182;BME280;51963;46.052;14.544;2023-07-16T04:01:07;98042.94;;;19.82;100.00
56182;BME280;51963;46.052;14.544;2023-07-16T04:03:35;98051.47;;;19.73;100.00
56182;BME280;51963;46.052;14.544;2023-07-16T04:06:05;98033.47;;;19.69;100.00
56182;BME280;51963;46.052;14.544;2023-07-16T04:08:34;98043.97;;;19.75;100.00
56182;BME280;51963;46.052;14.544;2023-07-16T04:11:07;98051.50;;;19.78;100.00
56182;BME280;51963;46.052;14.544;2023-07-16T04:13:33;98046.19;;;19.84;100.00
56182;BME280;51963;46.052;14.544;2023-07-16T04:15:59;98051.81;;;19.82;100.00
56182;BME280;51963;46.052;14.544;2023-07-16T04:18:25;98051.03;;;19.87;100.00
56182;BME280;51963;46.052;14.544;2023-07-16T04:20:51;98057.53;;;19.91;100.00
56182;BME280;51963;46.052;14.544;2023-07-16T04:23:17;98062.38;;;19.94;100.00
56182;BME280;51963;46.052;14.544;2023-07-16T04:25:43;98066.97;;;19.93;100.00
56182;BME280;51963;46.052;14.544;2023-07-16T04:28:10;98066.19;;;19.98;100.00
56182;BME280;51963;46.052;14.544;2023-07-16T04:30:36;98078.06;;;20.07;100.00
56182;BME280;51963;46.052;14.544;2023-07-16T04:33:03;98081.28;;;20.10;100.00
56182;BME280;51963;46.052;14.544;2023-07-16T04:35:29;98080.28;;;20.21;100.00
56182;BME280;51963;46.052;14.544;2023-07-16T04:37:54;98082.72;;;20.22;100.00
56182;BME280;51963;46.052;14.544;2023-07-16T04:40:20;98066.09;;;20.20;100.00
56182;BME280;51963;46.052;14.544;2023-07-16T04:42:49;98076.88;;;20.31;100.00
56182;BME280;51963;46.052;14.544;2023-07-16T04:45:15;98079.81;;;20.29;100.00
56182;BME280;51963;46.052;14.544;2023-07-16T04:47:43;98085.25;;;20.40;100.00
56182;BME280;51963;46.052;14.544;2023-07-16T04:50:11;98090.38;;;20.41;100.00
56182;BME280;51963;46.052;14.544;2023-07-16T04:52:39;98098.75;;;20.55;100.00
56182;BME280;51963;46.052;14.544;2023-07-16T04:55:05;98093.22;;;20.67;100.00
56182;BME280;51963;46.052;14.544;2023-07-16T04:57:32;98099.47;;;20.83;100.00
56182;BME280;51963;46.052;14.544;2023-07-16T05:00:01;98095.72;;;20.84;100.00
56182;BME280;51963;46.052;14.544;2023-07-16T05:02:31;98105.94;;;20.87;100.00
56182;BME280;51963;46.052;14.544;2023-07-16T05:04:57;98087.41;;;20.86;100.00
56182;BME280;51963;46.052;14.544;2023-07-16T05:07:25;98107.03;;;20.91;100.00
56182;BME280;51963;46.052;14.544;2023-07-16T05:09:54;98097.13;;;20.92;100.00
56182;BME280;51963;46.052;14.544;2023-07-16T05:12:19;98104.41;;;21.07;100.00
56182;BME280;51963;46.052;14.544;2023-07-16T05:14:48;98101.75;;;21.17;100.00
56182;BME280;51963;46.052;14.544;2023-07-16T05:17:17;98106.13;;;21.23;100.00
56182;BME280;51963;46.052;14.544;2023-07-16T05:19:42;98096.16;;;21.24;100.00
56182;BME280;51963;46.052;14.544;2023-07-16T05:22:08;98098.59;;;21.25;100.00
56182;BME280;51963;46.052;14.544;2023-07-16T05:24:34;98093.75;;;21.28;100.00
56182;BME280;51963;46.052;14.544;2023-07-16T05:27:02;98099.97;;;21.49;100.00
56182;BME280;51963;46.052;14.544;2023-07-16T05:29:28;98101.06;;;21.53;100.00
56182;BME280;51963;46.052;14.544;2023-07-16T05:31:57;98098.97;;;21.65;100.00
56182;BME280;51963;46.052;14.544;2023-07-16T05:34:22;98094.66;;;21.69;100.00
56182;BME280;51963;46.052;14.544;2023-07-16T05:36:53;98103.56;;;21.75;100.00
56182;BME280;51963;46.052;14.544;2023-07-16T05:39:20;98104.66;;;21.79;100.00
56182;BME280;51963;46.052;14.544;2023-07-16T05:41:46;98106.25;;;21.80;100.00
56182;BME280;51963;46.052;14.544;2023-07-16T05:44:11;98101.66;;;21.86;100.00
56182;BME280;51963;46.052;14.544;2023-07-16T05:46:37;98115.41;;;22.00;100.00
56182;BME280;51963;46.052;14.544;2023-07-16T05:49:02;98122.94;;;22.19;100.00
56182;BME280;51963;46.052;14.544;2023-07-16T05:51:28;98119.97;;;22.31;100.00
56182;BME280;51963;46.052;14.544;2023-07-16T05:53:56;98093.88;;;22.26;100.00
56182;BME280;51963;46.052;14.544;2023-07-16T05:56:21;98130.50;;;22.48;100.00
56182;BME280;51963;46.052;14.544;2023-07-16T05:58:47;98126.97;;;22.52;100.00
56182;BME280;51963;46.052;14.544;2023-07-16T06:01:13;98123.19;;;22.53;100.00
56182;BME280;51963;46.052;14.544;2023-07-16T06:03:41;98128.00;;;22.72;100.00
56182;BME280;51963;46.052;14.544;2023-07-16T06:06:09;98130.38;;;22.94;100.00
56182;BME280;51963;46.052;14.544;2023-07-16T06:08:40;98124.94;;;23.05;100.00
56182;BME280;51963;46.052;14.544;2023-07-16T06:11:06;98129.25;;;23.06;100.00
56182;BME280;51963;46.052;14.544;2023-07-16T06:13:35;98128.72;;;23.09;100.00
56182;BME280;51963;46.052;14.544;2023-07-16T06:16:00;98140.53;;;23.18;100.00
56182;BME280;51963;46.052;14.544;2023-07-16T06:18:26;98128.66;;;23.24;100.00
56182;BME280;51963;46.052;14.544;2023-07-16T06:20:52;98127.53;;;23.36;100.00
56182;BME280;51963;46.052;14.544;2023-07-16T06:23:19;98134.50;;;23.47;100.00
56182;BME280;51963;46.052;14.544;2023-07-16T06:25:44;98134.16;;;23.54;100.00
56182;BME280;51963;46.052;14.544;2023-07-16T06:28:10;98134.63;;;23.66;100.00
56182;BME280;51963;46.052;14.544;2023-07-16T06:30:37;98122.72;;;23.72;100.00
56182;BME280;51963;46.052;14.544;2023-07-16T06:33:02;98126.66;;;23.91;100.00
56182;BME280;51963;46.052;14.544;2023-07-16T06:35:31;98131.44;;;24.04;100.00
56182;BME280;51963;46.052;14.544;2023-07-16T06:37:59;98118.63;;;24.20;100.00
56182;BME280;51963;46.052;14.544;2023-07-16T06:40:28;98119.84;;;24.33;100.00
56182;BME280;51963;46.052;14.544;2023-07-16T06:42:57;98120.75;;;24.53;100.00
56182;BME280;51963;46.052;14.544;2023-07-16T06:45:25;98126.50;;;24.70;100.00
56182;BME280;51963;46.052;14.544;2023-07-16T06:48:00;98132.53;;;24.92;100.00
56182;BME280;51963;46.052;14.544;2023-07-16T06:50:25;98124.00;;;25.03;100.00
56182;BME280;51963;46.052;14.544;2023-07-16T06:52:51;98123.28;;;25.17;100.00
56182;BME280;51963;46.052;14.544;2023-07-16T06:55:16;98125.00;;;25.32;96.88
56182;BME280;51963;46.052;14.544;2023-07-16T06:57:45;98115.91;;;25.47;98.14
56182;BME280;51963;46.052;14.544;2023-07-16T07:00:10;98118.97;;;25.59;96.88
56182;BME280;51963;46.052;14.544;2023-07-16T07:02:36;98121.75;;;25.73;98.27
56182;BME280;51963;46.052;14.544;2023-07-16T07:05:02;98132.56;;;25.92;97.82
56182;BME280;51963;46.052;14.544;2023-07-16T07:07:28;98119.50;;;26.47;94.85
56182;BME280;51963;46.052;14.544;2023-07-16T07:09:54;98128.72;;;26.93;89.61
56182;BME280;51963;46.052;14.544;2023-07-16T07:12:20;98122.31;;;27.40;85.55
56182;BME280;51963;46.052;14.544;2023-07-16T07:14:46;98132.66;;;27.51;85.33
56182;BME280;51963;46.052;14.544;2023-07-16T07:17:13;98129.31;;;27.69;84.82
56182;BME280;51963;46.052;14.544;2023-07-16T07:19:38;98128.94;;;28.07;82.67
56182;BME280;51963;46.052;14.544;2023-07-16T07:22:04;98118.88;;;28.62;79.31
56182;BME280;51963;46.052;14.544;2023-07-16T07:24:30;98126.84;;;28.90;78.24
56182;BME280;51963;46.052;14.544;2023-07-16T07:27:00;98130.75;;;29.06;75.87
56182;BME280;51963;46.052;14.544;2023-07-16T07:29:31;98134.81;;;29.26;74.54
56182;BME280;51963;46.052;14.544;2023-07-16T07:31:57;98131.00;;;29.54;73.57
56182;BME280;51963;46.052;14.544;2023-07-16T07:34:25;98134.38;;;29.68;74.18
56182;BME280;51963;46.052;14.544;2023-07-16T07:36:50;98132.94;;;29.71;73.54
56182;BME280;51963;46.052;14.544;2023-07-16T07:39:16;98140.13;;;29.93;74.39
56182;BME280;51963;46.052;14.544;2023-07-16T07:41:42;98139.50;;;30.14;72.99
56182;BME280;51963;46.052;14.544;2023-07-16T07:44:12;98125.78;;;30.49;72.04
56182;BME280;51963;46.052;14.544;2023-07-16T07:46:40;98135.53;;;30.68;71.33
56182;BME280;51963;46.052;14.544;2023-07-16T07:49:08;98140.97;;;30.77;72.33
56182;BME280;51963;46.052;14.544;2023-07-16T07:51:34;98137.06;;;30.21;72.41
56182;BME280;51963;46.052;14.544;2023-07-16T07:54:02;98138.69;;;30.22;73.85
56182;BME280;51963;46.052;14.544;2023-07-16T07:56:28;98139.16;;;30.33;72.34
56182;BME280;51963;46.052;14.544;2023-07-16T07:58:59;98127.63;;;30.19;72.52
56182;BME280;51963;46.052;14.544;2023-07-16T08:01:24;98139.09;;;30.42;73.35
56182;BME280;51963;46.052;14.544;2023-07-16T08:03:52;98133.84;;;30.84;70.19
56182;BME280;51963;46.052;14.544;2023-07-16T08:06:18;98140.44;;;31.13;68.89
56182;BME280;51963;46.052;14.544;2023-07-16T08:08:44;98132.91;;;30.80;69.80
56182;BME280;51963;46.052;14.544;2023-07-16T08:11:12;98137.72;;;30.18;71.64
56182;BME280;51963;46.052;14.544;2023-07-16T08:13:44;98126.50;;;30.11;73.18
56182;BME280;51963;46.052;14.544;2023-07-16T08:16:09;98141.09;;;30.15;73.21
56182;BME280;51963;46.052;14.544;2023-07-16T08:18:38;98138.31;;;30.59;73.00
56182;BME280;51963;46.052;14.544;2023-07-16T08:21:03;98147.19;;;30.86;72.08
56182;BME280;51963;46.052;14.544;2023-07-16T08:23:34;98123.50;;;30.99;68.31
56182;BME280;51963;46.052;14.544;2023-07-16T08:25:59;98148.03;;;31.59;69.70
56182;BME280;51963;46.052;14.544;2023-07-16T08:28:25;98146.72;;;31.44;67.95
56182;BME280;51963;46.052;14.544;2023-07-16T08:30:54;98143.56;;;31.33;69.58
56182;BME280;51963;46.052;14.544;2023-07-16T08:33:19;98146.91;;;31.39;66.93
56182;BME280;51963;46.052;14.544;2023-07-16T08:35:45;98141.75;;;31.37;67.87
56182;BME280;51963;46.052;14.544;2023-07-16T08:38:18;98151.28;;;31.73;72.08
56182;BME280;51963;46.052;14.544;2023-07-16T08:40:47;98150.66;;;31.77;68.01
56182;BME280;51963;46.052;14.544;2023-07-16T08:43:15;98157.66;;;32.08;66.79
56182;BME280;51963;46.052;14.544;2023-07-16T08:45:42;98153.22;;;31.82;66.96
56182;BME280;51963;46.052;14.544;2023-07-16T08:48:10;98143.22;;;31.86;65.96
56182;BME280;51963;46.052;14.544;2023-07-16T08:50:37;98160.44;;;31.99;64.98
56182;BME280;51963;46.052;14.544;2023-07-16T08:53:09;98162.56;;;32.36;66.82
56182;BME280;51963;46.052;14.544;2023-07-16T08:55:35;98156.91;;;32.66;64.09
56182;BME280;51963;46.052;14.544;2023-07-16T08:58:03;98163.03;;;32.50;68.08
56182;BME280;51963;46.052;14.544;2023-07-16T09:00:29;98169.41;;;32.42;65.66
56182;BME280;51963;46.052;14.544;2023-07-16T09:02:58;98158.00;;;32.40;64.72
56182;BME280;51963;46.052;14.544;2023-07-16T09:05:24;98166.50;;;32.72;63.21
56182;BME280;51963;46.052;14.544;2023-07-16T09:07:50;98167.91;;;33.03;61.56
56182;BME280;51963;46.052;14.544;2023-07-16T09:10:16;98170.63;;;33.03;62.43
56182;BME280;51963;46.052;14.544;2023-07-16T09:12:44;98169.59;;;32.95;61.76
56182;BME280;51963;46.052;14.544;2023-07-16T09:15:10;98170.25;;;33.29;59.46
56182;BME280;51963;46.052;14.544;2023-07-16T09:17:41;98167.22;;;33.18;59.01
56182;BME280;51963;46.052;14.544;2023-07-16T09:20:08;98164.25;;;33.24;59.95
56182;BME280;51963;46.052;14.544;2023-07-16T09:22:36;98164.94;;;33.20;62.38
56182;BME280;51963;46.052;14.544;2023-07-16T09:25:03;98166.56;;;33.62;58.22
56182;BME280;51963;46.052;14.544;2023-07-16T09:27:31;98166.53;;;33.75;58.87
56182;BME280;51963;46.052;14.544;2023-07-16T09:29:59;98162.19;;;33.74;58.07
56182;BME280;51963;46.052;14.544;2023-07-16T09:32:35;98173.66;;;34.04;59.81
56182;BME280;51963;46.052;14.544;2023-07-16T09:35:01;98158.47;;;33.66;58.42
56182;BME280;51963;46.052;14.544;2023-07-16T09:37:31;98159.84;;;34.29;58.45
56182;BME280;51963;46.052;14.544;2023-07-16T09:39:59;98157.81;;;34.42;56.44
56182;BME280;51963;46.052;14.544;2023-07-16T09:42:26;98151.09;;;34.40;53.66
56182;BME280;51963;46.052;14.544;2023-07-16T09:44:53;98159.47;;;34.31;53.45
56182;BME280;51963;46.052;14.544;2023-07-16T09:47:19;98157.94;;;34.17;55.00
56182;BME280;51963;46.052;14.544;2023-07-16T09:49:45;98134.63;;;34.40;53.62
56182;BME280;51963;46.052;14.544;2023-07-16T09:52:11;98155.00;;;33.82;57.04
56182;BME280;51963;46.052;14.544;2023-07-16T09:54:39;98170.63;;;34.38;52.67
56182;BME280;51963;46.052;14.544;2023-07-16T09:57:09;98161.59;;;34.66;52.15
56182;BME280;51963;46.052;14.544;2023-07-16T09:59:35;98173.34;;;34.66;53.88
56182;BME280;51963;46.052;14.544;2023-07-16T10:02:01;98173.09;;;34.72;53.21
56182;BME280;51963;46.052;14.544;2023-07-16T10:04:37;98170.63;;;34.99;49.84
56182;BME280;51963;46.052;14.544;2023-07-16T10:07:06;98162.53;;;35.22;51.07
56182;BME280;51963;46.052;14.544;2023-07-16T10:09:41;98169.91;;;35.53;49.70
56182;BME280;51963;46.052;14.544;2023-07-16T10:14:46;98169.28;;;35.44;48.32
56182;BME280;51963;46.052;14.544;2023-07-16T10:17:17;98173.69;;;35.85;49.00
56182;BME280;51963;46.052;14.544;2023-07-16T10:25:00;98175.94;;;35.59;47.17
56182;BME280;51963;46.052;14.544;2023-07-16T10:27:33;98175.44;;;35.73;47.58
56182;BME280;51963;46.052;14.544;2023-07-16T10:30:00;98173.69;;;35.65;47.43
56182;BME280;51963;46.052;14.544;2023-07-16T10:32:32;98177.59;;;35.64;47.23
56182;BME280;51963;46.052;14.544;2023-07-16T10:34:58;98177.81;;;35.94;47.55
56182;BME280;51963;46.052;14.544;2023-07-16T10:37:26;98174.53;;;36.05;46.03
56182;BME280;51963;46.052;14.544;2023-07-16T10:39:54;98173.94;;;36.58;43.23
56182;BME280;51963;46.052;14.544;2023-07-16T10:42:22;98172.66;;;36.32;43.62
56182;BME280;51963;46.052;14.544;2023-07-16T10:44:51;98166.63;;;36.03;44.01
56182;BME280;51963;46.052;14.544;2023-07-16T10:47:35;98175.19;;;36.41;44.30
56182;BME280;51963;46.052;14.544;2023-07-16T10:50:05;98166.22;;;36.67;44.00
56182;BME280;51963;46.052;14.544;2023-07-16T10:52:37;98163.03;;;37.42;44.70
56182;BME280;51963;46.052;14.544;2023-07-16T10:55:05;98167.66;;;37.62;43.83
56182;BME280;51963;46.052;14.544;2023-07-16T10:57:31;98170.28;;;37.51;41.44
56182;BME280;51963;46.052;14.544;2023-07-16T10:59:58;98176.78;;;38.76;38.99
56182;BME280;51963;46.052;14.544;2023-07-16T11:02:24;98172.78;;;38.69;38.47
56182;BME280;51963;46.052;14.544;2023-07-16T11:04:51;98171.19;;;37.93;37.80
56182;BME280;51963;46.052;14.544;2023-07-16T11:07:21;98177.19;;;37.68;39.01
56182;BME280;51963;46.052;14.544;2023-07-16T11:09:51;98179.00;;;37.87;39.98
56182;BME280;51963;46.052;14.544;2023-07-16T11:12:22;98185.72;;;37.55;40.40
56182;BME280;51963;46.052;14.544;2023-07-16T11:14:53;98166.16;;;37.68;37.74
56182;BME280;51963;46.052;14.544;2023-07-16T11:17:19;98171.41;;;38.11;36.94
56182;BME280;51963;46.052;14.544;2023-07-16T11:19:46;98173.13;;;38.23;38.32
56182;BME280;51963;46.052;14.544;2023-07-16T11:22:13;98168.97;;;38.02;39.21
56182;BME280;51963;46.052;14.544;2023-07-16T11:30:05;98159.41;;;39.27;35.80
56182;BME280;51963;46.052;14.544;2023-07-16T11:35:05;98160.78;;;38.51;33.96
56182;BME280;51963;46.052;14.544;2023-07-16T11:37:35;98155.78;;;38.26;34.50
56182;BME280;51963;46.052;14.544;2023-07-16T11:40:07;98172.66;;;38.55;35.54
56182;BME280;51963;46.052;14.544;2023-07-16T11:42:34;98160.16;;;38.68;34.35
56182;BME280;51963;46.052;14.544;2023-07-16T11:45:00;98172.00;;;38.72;36.38
56182;BME280;51963;46.052;14.544;2023-07-16T11:47:27;98150.31;;;39.30;34.04
56182;BME280;51963;46.052;14.544;2023-07-16T11:49:53;98172.94;;;39.47;33.70
56182;BME280;51963;46.052;14.544;2023-07-16T11:52:24;98167.09;;;39.00;33.89
56182;BME280;51963;46.052;14.544;2023-07-16T11:54:56;98169.13;;;38.58;33.91
56182;BME280;51963;46.052;14.544;2023-07-16T11:57:24;98170.06;;;39.29;32.02
56182;BME280;51963;46.052;14.544;2023-07-16T11:59:50;98160.97;;;39.32;31.96
56182;BME280;51963;46.052;14.544;2023-07-16T12:02:15;98155.59;;;39.54;31.75
56182;BME280;51963;46.052;14.544;2023-07-16T12:04:41;98157.75;;;39.97;31.81
56182;BME280;51963;46.052;14.544;2023-07-16T12:07:07;98161.69;;;39.88;32.39
56182;BME280;51963;46.052;14.544;2023-07-16T12:09:33;98154.19;;;39.15;31.96
56182;BME280;51963;46.052;14.544;2023-07-16T12:11:59;98167.66;;;39.20;31.70
56182;BME280;51963;46.052;14.544;2023-07-16T12:14:26;98174.09;;;39.39;32.00
56182;BME280;51963;46.052;14.544;2023-07-16T12:16:54;98159.59;;;39.64;32.20
56182;BME280;51963;46.052;14.544;2023-07-16T12:19:20;98164.97;;;40.34;31.90
56182;BME280;51963;46.052;14.544;2023-07-16T12:21:49;98155.41;;;40.06;31.47
56182;BME280;51963;46.052;14.544;2023-07-16T12:24:16;98153.81;;;39.98;30.92
56182;BME280;51963;46.052;14.544;2023-07-16T12:26:41;98155.47;;;40.28;31.53
56182;BME280;51963;46.052;14.544;2023-07-16T12:29:09;98157.09;;;40.87;30.84
56182;BME280;51963;46.052;14.544;2023-07-16T12:31:40;98163.44;;;40.76;30.04
56182;BME280;51963;46.052;14.544;2023-07-16T12:34:11;98138.78;;;39.99;29.71
56182;BME280;51963;46.052;14.544;2023-07-16T12:36:39;98166.91;;;40.12;30.51
56182;BME280;51963;46.052;14.544;2023-07-16T12:39:05;98155.84;;;40.12;30.43
56182;BME280;51963;46.052;14.544;2023-07-16T12:41:31;98157.09;;;40.51;30.51
56182;BME280;51963;46.052;14.544;2023-07-16T12:43:56;98167.38;;;40.97;30.26
56182;BME280;51963;46.052;14.544;2023-07-16T12:46:22;98162.66;;;40.98;29.13
56182;BME280;51963;46.052;14.544;2023-07-16T12:48:52;98159.44;;;41.06;29.93
56182;BME280;51963;46.052;14.544;2023-07-16T12:51:26;98165.69;;;41.61;29.40
56182;BME280;51963;46.052;14.544;2023-07-16T12:53:52;98161.03;;;40.64;29.57
56182;BME280;51963;46.052;14.544;2023-07-16T12:56:17;98159.38;;;41.43;26.38
56182;BME280;51963;46.052;14.544;2023-07-16T12:58:43;98157.78;;;41.60;27.46
56182;BME280;51963;46.052;14.544;2023-07-16T13:01:09;98156.28;;;41.19;26.96
56182;BME280;51963;46.052;14.544;2023-07-16T13:03:34;98160.66;;;41.09;27.19
56182;BME280;51963;46.052;14.544;2023-07-16T13:06:02;98154.72;;;40.82;27.62
56182;BME280;51963;46.052;14.544;2023-07-16T13:08:29;98157.91;;;40.95;27.48
56182;BME280;51963;46.052;14.544;2023-07-16T13:10:57;98151.97;;;40.74;28.28